Twigg, Illinois
Current Conditions -  °F | °C
As of 9:55 AM on Thursday 30 Oct 2014 (Local Time) from KHSB Reporting Station
Clear Clear  
Wind Chill:   Ceiling: Unl
Heat Index:   Visibility: 10mi
Dew Point:   Wind: 5mph
Humidity: 84%   Direction: 140°SE
Pressure: 30.19"   Gusts: NA
Location:  37.9948°N, 88.5401°W
Report Text: KHSB 301455Z AUTO 14004KT 10SM CLR 09/06 A3019 RMK AO2 T00860061
Loading
Personal Weather Stations






























Interactive Weather Map
Tropical Storm Tracking
New forecast layout! Learn more

10-Day Weather Forecast

Advertisements
Track Severe Weather on mobile